sensor_id;sensor_type;location;lat;lon;timestamp;P1;durP1;ratioP1;P2;durP2;ratioP2
14181;SDS011;7171;50.936;6.764;2024-01-16T00:02:17;7.17;;;3.47;;
14181;SDS011;7171;50.936;6.764;2024-01-16T00:04:43;6.43;;;3.87;;
14181;SDS011;7171;50.936;6.764;2024-01-16T00:07:11;8.97;;;3.07;;
14181;SDS011;7171;50.936;6.764;2024-01-16T00:09:38;5.47;;;3.30;;
14181;SDS011;7171;50.936;6.764;2024-01-16T00:12:05;5.07;;;3.20;;
14181;SDS011;7171;50.936;6.764;2024-01-16T00:14:34;5.57;;;3.17;;
14181;SDS011;7171;50.936;6.764;2024-01-16T00:17:02;7.33;;;3.77;;
14181;SDS011;7171;50.936;6.764;2024-01-16T00:19:29;4.07;;;2.90;;
14181;SDS011;7171;50.936;6.764;2024-01-16T00:21:55;13.83;;;3.77;;
14181;SDS011;7171;50.936;6.764;2024-01-16T00:24:23;4.97;;;3.30;;
14181;SDS011;7171;50.936;6.764;2024-01-16T00:26:50;6.80;;;3.50;;
14181;SDS011;7171;50.936;6.764;2024-01-16T00:29:17;3.00;;;2.60;;
14181;SDS011;7171;50.936;6.764;2024-01-16T00:31:44;11.23;;;3.20;;
14181;SDS011;7171;50.936;6.764;2024-01-16T00:34:10;9.33;;;3.10;;
14181;SDS011;7171;50.936;6.764;2024-01-16T00:36:37;3.20;;;2.90;;
14181;SDS011;7171;50.936;6.764;2024-01-16T00:39:04;3.57;;;2.87;;
14181;SDS011;7171;50.936;6.764;2024-01-16T00:41:33;7.50;;;2.93;;
14181;SDS011;7171;50.936;6.764;2024-01-16T00:44:00;4.87;;;3.00;;
14181;SDS011;7171;50.936;6.764;2024-01-16T00:46:26;4.80;;;3.53;;
14181;SDS011;7171;50.936;6.764;2024-01-16T00:48:53;5.93;;;3.57;;
14181;SDS011;7171;50.936;6.764;2024-01-16T00:51:20;5.47;;;3.17;;
14181;SDS011;7171;50.936;6.764;2024-01-16T00:53:46;3.03;;;2.73;;
14181;SDS011;7171;50.936;6.764;2024-01-16T00:56:13;4.90;;;3.30;;
14181;SDS011;7171;50.936;6.764;2024-01-16T00:58:41;5.27;;;3.07;;
14181;SDS011;7171;50.936;6.764;2024-01-16T01:01:08;3.47;;;2.57;;
14181;SDS011;7171;50.936;6.764;2024-01-16T01:03:35;5.03;;;2.93;;
14181;SDS011;7171;50.936;6.764;2024-01-16T01:06:01;6.57;;;3.30;;
14181;SDS011;7171;50.936;6.764;2024-01-16T01:08:28;2.60;;;2.40;;
14181;SDS011;7171;50.936;6.764;2024-01-16T01:10:55;12.33;;;3.33;;
14181;SDS011;7171;50.936;6.764;2024-01-16T01:13:22;4.90;;;2.73;;
14181;SDS011;7171;50.936;6.764;2024-01-16T01:15:51;4.77;;;3.13;;
14181;SDS011;7171;50.936;6.764;2024-01-16T01:18:17;2.77;;;2.57;;
14181;SDS011;7171;50.936;6.764;2024-01-16T01:20:43;3.53;;;3.23;;
14181;SDS011;7171;50.936;6.764;2024-01-16T01:23:10;10.67;;;3.20;;
14181;SDS011;7171;50.936;6.764;2024-01-16T01:25:37;4.33;;;2.37;;
14181;SDS011;7171;50.936;6.764;2024-01-16T01:28:04;3.00;;;2.70;;
14181;SDS011;7171;50.936;6.764;2024-01-16T01:30:31;6.53;;;2.70;;
14181;SDS011;7171;50.936;6.764;2024-01-16T01:32:59;3.67;;;2.10;;
14181;SDS011;7171;50.936;6.764;2024-01-16T01:35:26;2.87;;;2.57;;
14181;SDS011;7171;50.936;6.764;2024-01-16T01:37:52;3.03;;;2.47;;
14181;SDS011;7171;50.936;6.764;2024-01-16T01:40:19;3.90;;;2.53;;
14181;SDS011;7171;50.936;6.764;2024-01-16T01:42:46;7.13;;;2.57;;
14181;SDS011;7171;50.936;6.764;2024-01-16T01:45:12;5.33;;;2.27;;
14181;SDS011;7171;50.936;6.764;2024-01-16T01:47:39;8.83;;;2.37;;
14181;SDS011;7171;50.936;6.764;2024-01-16T01:50:09;7.43;;;2.33;;
14181;SDS011;7171;50.936;6.764;2024-01-16T01:52:36;6.40;;;2.93;;
14181;SDS011;7171;50.936;6.764;2024-01-16T01:55:05;3.17;;;2.60;;
14181;SDS011;7171;50.936;6.764;2024-01-16T01:57:35;7.60;;;3.07;;
14181;SDS011;7171;50.936;6.764;2024-01-16T02:00:02;7.77;;;3.10;;
14181;SDS011;7171;50.936;6.764;2024-01-16T02:02:29;3.20;;;3.00;;
14181;SDS011;7171;50.936;6.764;2024-01-16T02:04:58;4.50;;;3.10;;
14181;SDS011;7171;50.936;6.764;2024-01-16T02:07:26;7.67;;;2.80;;
14181;SDS011;7171;50.936;6.764;2024-01-16T02:09:54;9.27;;;3.77;;
14181;SDS011;7171;50.936;6.764;2024-01-16T02:12:21;3.93;;;2.50;;
14181;SDS011;7171;50.936;6.764;2024-01-16T02:14:48;3.27;;;2.80;;
14181;SDS011;7171;50.936;6.764;2024-01-16T02:17:14;6.87;;;2.87;;
14181;SDS011;7171;50.936;6.764;2024-01-16T02:19:42;11.87;;;2.73;;
14181;SDS011;7171;50.936;6.764;2024-01-16T02:22:09;4.67;;;2.73;;
14181;SDS011;7171;50.936;6.764;2024-01-16T02:24:42;6.37;;;2.63;;
14181;SDS011;7171;50.936;6.764;2024-01-16T02:27:10;4.17;;;3.77;;
14181;SDS011;7171;50.936;6.764;2024-01-16T02:29:40;7.13;;;3.00;;
14181;SDS011;7171;50.936;6.764;2024-01-16T02:32:07;4.77;;;2.67;;
14181;SDS011;7171;50.936;6.764;2024-01-16T02:34:34;4.33;;;2.30;;
14181;SDS011;7171;50.936;6.764;2024-01-16T02:37:01;5.27;;;2.30;;
14181;SDS011;7171;50.936;6.764;2024-01-16T02:39:27;5.07;;;2.77;;
14181;SDS011;7171;50.936;6.764;2024-01-16T02:41:55;4.27;;;2.73;;
14181;SDS011;7171;50.936;6.764;2024-01-16T02:44:22;6.47;;;2.97;;
14181;SDS011;7171;50.936;6.764;2024-01-16T02:46:49;10.57;;;2.93;;
14181;SDS011;7171;50.936;6.764;2024-01-16T02:49:16;6.33;;;3.10;;
14181;SDS011;7171;50.936;6.764;2024-01-16T02:51:42;3.17;;;2.87;;
14181;SDS011;7171;50.936;6.764;2024-01-16T02:54:09;3.70;;;3.30;;
14181;SDS011;7171;50.936;6.764;2024-01-16T02:56:37;11.00;;;3.23;;
14181;SDS011;7171;50.936;6.764;2024-01-16T02:59:05;5.50;;;2.87;;
14181;SDS011;7171;50.936;6.764;2024-01-16T03:01:31;3.53;;;2.50;;
14181;SDS011;7171;50.936;6.764;2024-01-16T03:03:58;7.40;;;3.00;;
14181;SDS011;7171;50.936;6.764;2024-01-16T03:06:25;2.90;;;2.60;;
14181;SDS011;7171;50.936;6.764;2024-01-16T03:08:53;4.63;;;2.60;;
14181;SDS011;7171;50.936;6.764;2024-01-16T03:11:20;2.97;;;2.67;;
14181;SDS011;7171;50.936;6.764;2024-01-16T03:13:46;9.40;;;3.63;;
14181;SDS011;7171;50.936;6.764;2024-01-16T03:16:16;5.70;;;3.00;;
14181;SDS011;7171;50.936;6.764;2024-01-16T03:18:42;9.80;;;3.73;;
14181;SDS011;7171;50.936;6.764;2024-01-16T03:21:10;3.27;;;3.03;;
14181;SDS011;7171;50.936;6.764;2024-01-16T03:23:38;9.93;;;3.23;;
14181;SDS011;7171;50.936;6.764;2024-01-16T03:26:04;15.07;;;3.40;;
14181;SDS011;7171;50.936;6.764;2024-01-16T03:28:31;4.07;;;3.27;;
14181;SDS011;7171;50.936;6.764;2024-01-16T03:30:58;3.47;;;2.53;;
14181;SDS011;7171;50.936;6.764;2024-01-16T03:33:26;3.60;;;2.90;;
14181;SDS011;7171;50.936;6.764;2024-01-16T03:35:52;9.33;;;3.60;;
14181;SDS011;7171;50.936;6.764;2024-01-16T03:38:19;11.13;;;3.63;;
14181;SDS011;7171;50.936;6.764;2024-01-16T03:40:46;7.80;;;3.40;;
14181;SDS011;7171;50.936;6.764;2024-01-16T03:43:12;3.00;;;2.70;;
14181;SDS011;7171;50.936;6.764;2024-01-16T03:45:39;5.77;;;3.50;;
14181;SDS011;7171;50.936;6.764;2024-01-16T03:48:06;5.60;;;3.30;;
14181;SDS011;7171;50.936;6.764;2024-01-16T03:50:34;8.10;;;4.13;;
14181;SDS011;7171;50.936;6.764;2024-01-16T03:53:01;5.27;;;3.27;;
14181;SDS011;7171;50.936;6.764;2024-01-16T03:55:28;4.53;;;3.80;;
14181;SDS011;7171;50.936;6.764;2024-01-16T03:57:55;11.70;;;3.30;;
14181;SDS011;7171;50.936;6.764;2024-01-16T04:00:22;5.43;;;3.40;;
14181;SDS011;7171;50.936;6.764;2024-01-16T04:02:49;9.00;;;4.17;;
14181;SDS011;7171;50.936;6.764;2024-01-16T04:05:15;4.33;;;3.20;;
14181;SDS011;7171;50.936;6.764;2024-01-16T04:07:43;4.60;;;2.97;;
14181;SDS011;7171;50.936;6.764;2024-01-16T04:10:10;9.87;;;5.07;;
14181;SDS011;7171;50.936;6.764;2024-01-16T04:12:37;5.17;;;4.30;;
14181;SDS011;7171;50.936;6.764;2024-01-16T04:15:04;8.77;;;4.20;;
14181;SDS011;7171;50.936;6.764;2024-01-16T04:17:31;3.73;;;3.40;;
14181;SDS011;7171;50.936;6.764;2024-01-16T04:19:57;5.90;;;3.37;;
14181;SDS011;7171;50.936;6.764;2024-01-16T04:22:24;13.17;;;4.03;;
14181;SDS011;7171;50.936;6.764;2024-01-16T04:24:52;5.90;;;3.27;;
14181;SDS011;7171;50.936;6.764;2024-01-16T04:27:19;3.37;;;2.57;;
14181;SDS011;7171;50.936;6.764;2024-01-16T04:29:46;3.13;;;2.83;;
14181;SDS011;7171;50.936;6.764;2024-01-16T04:32:13;12.83;;;2.90;;
14181;SDS011;7171;50.936;6.764;2024-01-16T04:34:39;3.83;;;2.77;;
14181;SDS011;7171;50.936;6.764;2024-01-16T04:37:06;5.70;;;2.63;;
14181;SDS011;7171;50.936;6.764;2024-01-16T04:39:33;3.20;;;2.67;;
14181;SDS011;7171;50.936;6.764;2024-01-16T04:42:01;5.40;;;3.43;;
14181;SDS011;7171;50.936;6.764;2024-01-16T04:44:27;2.00;;;1.90;;
14181;SDS011;7171;50.936;6.764;2024-01-16T04:46:54;3.87;;;2.90;;
14181;SDS011;7171;50.936;6.764;2024-01-16T04:49:21;4.10;;;3.33;;
14181;SDS011;7171;50.936;6.764;2024-01-16T04:51:49;3.97;;;2.27;;
14181;SDS011;7171;50.936;6.764;2024-01-16T04:54:15;4.50;;;2.20;;
14181;SDS011;7171;50.936;6.764;2024-01-16T04:56:42;2.50;;;2.13;;
14181;SDS011;7171;50.936;6.764;2024-01-16T04:59:10;5.33;;;2.23;;
14181;SDS011;7171;50.936;6.764;2024-01-16T05:01:37;4.20;;;2.63;;
14181;SDS011;7171;50.936;6.764;2024-01-16T05:04:03;3.07;;;2.50;;
14181;SDS011;7171;50.936;6.764;2024-01-16T05:06:33;6.73;;;2.73;;
14181;SDS011;7171;50.936;6.764;2024-01-16T05:08:59;2.00;;;1.73;;
14181;SDS011;7171;50.936;6.764;2024-01-16T05:11:26;6.57;;;2.47;;
14181;SDS011;7171;50.936;6.764;2024-01-16T05:13:53;10.73;;;2.27;;
14181;SDS011;7171;50.936;6.764;2024-01-16T05:16:24;4.53;;;3.40;;
14181;SDS011;7171;50.936;6.764;2024-01-16T05:18:51;2.17;;;1.97;;
14181;SDS011;7171;50.936;6.764;2024-01-16T05:21:18;7.27;;;2.60;;
14181;SDS011;7171;50.936;6.764;2024-01-16T05:23:45;3.70;;;2.70;;
14181;SDS011;7171;50.936;6.764;2024-01-16T05:26:12;4.80;;;3.03;;
14181;SDS011;7171;50.936;6.764;2024-01-16T05:28:39;2.83;;;1.93;;
14181;SDS011;7171;50.936;6.764;2024-01-16T05:31:05;2.60;;;2.40;;
14181;SDS011;7171;50.936;6.764;2024-01-16T05:33:34;5.23;;;2.30;;
14181;SDS011;7171;50.936;6.764;2024-01-16T05:36:00;2.73;;;2.50;;
14181;SDS011;7171;50.936;6.764;2024-01-16T05:38:27;4.17;;;2.50;;
14181;SDS011;7171;50.936;6.764;2024-01-16T05:40:54;4.70;;;2.63;;
14181;SDS011;7171;50.936;6.764;2024-01-16T05:43:21;4.30;;;2.43;;
14181;SDS011;7171;50.936;6.764;2024-01-16T05:45:47;6.50;;;2.63;;
14181;SDS011;7171;50.936;6.764;2024-01-16T05:48:15;2.43;;;2.03;;
14181;SDS011;7171;50.936;6.764;2024-01-16T05:50:43;3.97;;;2.70;;
14181;SDS011;7171;50.936;6.764;2024-01-16T05:53:10;5.40;;;2.10;;
14181;SDS011;7171;50.936;6.764;2024-01-16T05:55:37;3.87;;;2.33;;
14181;SDS011;7171;50.936;6.764;2024-01-16T05:58:03;4.37;;;2.57;;
14181;SDS011;7171;50.936;6.764;2024-01-16T06:00:30;3.47;;;2.43;;
14181;SDS011;7171;50.936;6.764;2024-01-16T06:02:58;3.60;;;2.13;;
14181;SDS011;7171;50.936;6.764;2024-01-16T06:05:25;13.70;;;2.43;;
14181;SDS011;7171;50.936;6.764;2024-01-16T06:07:53;7.93;;;2.67;;
14181;SDS011;7171;50.936;6.764;2024-01-16T06:10:19;5.17;;;1.90;;
14181;SDS011;7171;50.936;6.764;2024-01-16T06:12:45;5.60;;;2.03;;
14181;SDS011;7171;50.936;6.764;2024-01-16T06:15:12;2.53;;;2.33;;
14181;SDS011;7171;50.936;6.764;2024-01-16T06:17:39;3.43;;;2.30;;
14181;SDS011;7171;50.936;6.764;2024-01-16T06:20:06;3.93;;;2.57;;
14181;SDS011;7171;50.936;6.764;2024-01-16T06:22:33;4.90;;;2.60;;
14181;SDS011;7171;50.936;6.764;2024-01-16T06:25:01;1.97;;;1.77;;
14181;SDS011;7171;50.936;6.764;2024-01-16T06:27:28;2.67;;;2.43;;
14181;SDS011;7171;50.936;6.764;2024-01-16T06:29:55;3.33;;;2.43;;
14181;SDS011;7171;50.936;6.764;2024-01-16T06:32:21;6.90;;;2.80;;
14181;SDS011;7171;50.936;6.764;2024-01-16T06:34:48;4.77;;;3.00;;
14181;SDS011;7171;50.936;6.764;2024-01-16T06:37:15;6.13;;;2.50;;
14181;SDS011;7171;50.936;6.764;2024-01-16T06:39:42;8.57;;;2.63;;
14181;SDS011;7171;50.936;6.764;2024-01-16T06:42:10;3.40;;;1.90;;
14181;SDS011;7171;50.936;6.764;2024-01-16T06:44:36;9.97;;;3.33;;
14181;SDS011;7171;50.936;6.764;2024-01-16T06:47:03;5.47;;;2.60;;
14181;SDS011;7171;50.936;6.764;2024-01-16T06:49:31;2.97;;;1.83;;
14181;SDS011;7171;50.936;6.764;2024-01-16T06:51:57;3.20;;;2.43;;
14181;SDS011;7171;50.936;6.764;2024-01-16T06:54:24;4.00;;;2.20;;
14181;SDS011;7171;50.936;6.764;2024-01-16T06:56:51;3.53;;;2.07;;
14181;SDS011;7171;50.936;6.764;2024-01-16T06:59:19;10.47;;;2.30;;
14181;SDS011;7171;50.936;6.764;2024-01-16T07:01:46;6.27;;;2.40;;
14181;SDS011;7171;50.936;6.764;2024-01-16T07:04:13;2.97;;;2.30;;
14181;SDS011;7171;50.936;6.764;2024-01-16T07:06:40;10.33;;;2.63;;
14181;SDS011;7171;50.936;6.764;2024-01-16T07:09:07;5.97;;;2.10;;
14181;SDS011;7171;50.936;6.764;2024-01-16T07:11:35;11.87;;;2.83;;
14181;SDS011;7171;50.936;6.764;2024-01-16T07:14:02;7.67;;;2.70;;
14181;SDS011;7171;50.936;6.764;2024-01-16T07:16:31;4.60;;;2.10;;
14181;SDS011;7171;50.936;6.764;2024-01-16T07:18:57;4.40;;;1.90;;
14181;SDS011;7171;50.936;6.764;2024-01-16T07:21:24;6.23;;;1.93;;
14181;SDS011;7171;50.936;6.764;2024-01-16T07:23:51;9.77;;;2.50;;
14181;SDS011;7171;50.936;6.764;2024-01-16T07:26:18;2.27;;;1.80;;
14181;SDS011;7171;50.936;6.764;2024-01-16T07:28:44;3.37;;;1.87;;
14181;SDS011;7171;50.936;6.764;2024-01-16T07:31:12;5.30;;;2.03;;
14181;SDS011;7171;50.936;6.764;2024-01-16T07:33:41;3.70;;;2.07;;
14181;SDS011;7171;50.936;6.764;2024-01-16T07:36:08;4.07;;;2.30;;
14181;SDS011;7171;50.936;6.764;2024-01-16T07:38:35;3.57;;;1.87;;
14181;SDS011;7171;50.936;6.764;2024-01-16T07:41:02;4.77;;;2.00;;
14181;SDS011;7171;50.936;6.764;2024-01-16T07:43:29;3.97;;;1.80;;
14181;SDS011;7171;50.936;6.764;2024-01-16T07:45:56;11.90;;;1.80;;
14181;SDS011;7171;50.936;6.764;2024-01-16T07:48:22;4.03;;;1.70;;
14181;SDS011;7171;50.936;6.764;2024-01-16T07:50:50;2.73;;;1.80;;
14181;SDS011;7171;50.936;6.764;2024-01-16T07:53:17;7.47;;;2.00;;
14181;SDS011;7171;50.936;6.764;2024-01-16T07:55:44;3.43;;;1.40;;
14181;SDS011;7171;50.936;6.764;2024-01-16T07:58:11;4.53;;;1.87;;
14181;SDS011;7171;50.936;6.764;2024-01-16T08:00:38;2.60;;;1.83;;
14181;SDS011;7171;50.936;6.764;2024-01-16T08:03:08;4.77;;;2.37;;
14181;SDS011;7171;50.936;6.764;2024-01-16T08:05:36;4.33;;;1.93;;
14181;SDS011;7171;50.936;6.764;2024-01-16T08:08:05;1.27;;;1.20;;
14181;SDS011;7171;50.936;6.764;2024-01-16T08:10:34;2.13;;;1.93;;
14181;SDS011;7171;50.936;6.764;2024-01-16T08:13:01;2.70;;;1.93;;
14181;SDS011;7171;50.936;6.764;2024-01-16T08:15:28;2.77;;;1.87;;
14181;SDS011;7171;50.936;6.764;2024-01-16T08:17:55;1.70;;;1.60;;
14181;SDS011;7171;50.936;6.764;2024-01-16T08:20:21;6.63;;;2.03;;
14181;SDS011;7171;50.936;6.764;2024-01-16T08:22:48;3.60;;;1.87;;
14181;SDS011;7171;50.936;6.764;2024-01-16T08:25:17;5.13;;;2.27;;
14181;SDS011;7171;50.936;6.764;2024-01-16T08:27:43;6.33;;;2.47;;
14181;SDS011;7171;50.936;6.764;2024-01-16T08:30:10;5.83;;;2.17;;
14181;SDS011;7171;50.936;6.764;2024-01-16T08:32:38;4.83;;;1.77;;
14181;SDS011;7171;50.936;6.764;2024-01-16T08:35:05;9.23;;;1.90;;
14181;SDS011;7171;50.936;6.764;2024-01-16T08:37:33;6.13;;;1.87;;
14181;SDS011;7171;50.936;6.764;2024-01-16T08:40:00;3.23;;;2.10;;
14181;SDS011;7171;50.936;6.764;2024-01-16T08:42:29;2.17;;;1.60;;
14181;SDS011;7171;50.936;6.764;2024-01-16T08:44:56;12.87;;;2.00;;
14181;SDS011;7171;50.936;6.764;2024-01-16T08:47:23;4.87;;;2.23;;
14181;SDS011;7171;50.936;6.764;2024-01-16T08:49:50;5.60;;;2.07;;
14181;SDS011;7171;50.936;6.764;2024-01-16T08:52:17;4.90;;;1.50;;
14181;SDS011;7171;50.936;6.764;2024-01-16T08:54:44;1.50;;;1.07;;
14181;SDS011;7171;50.936;6.764;2024-01-16T08:57:10;2.03;;;1.70;;
14181;SDS011;7171;50.936;6.764;2024-01-16T08:59:39;3.83;;;1.50;;
14181;SDS011;7171;50.936;6.764;2024-01-16T09:02:06;2.03;;;1.40;;
14181;SDS011;7171;50.936;6.764;2024-01-16T09:04:33;3.23;;;1.60;;
14181;SDS011;7171;50.936;6.764;2024-01-16T09:07:00;3.33;;;1.93;;
14181;SDS011;7171;50.936;6.764;2024-01-16T09:09:29;2.37;;;1.53;;
14181;SDS011;7171;50.936;6.764;2024-01-16T09:11:56;4.70;;;1.67;;
14181;SDS011;7171;50.936;6.764;2024-01-16T09:14:24;4.53;;;1.77;;
14181;SDS011;7171;50.936;6.764;2024-01-16T09:16:52;11.30;;;1.70;;
14181;SDS011;7171;50.936;6.764;2024-01-16T09:19:19;2.30;;;1.47;;
14181;SDS011;7171;50.936;6.764;2024-01-16T09:21:46;4.60;;;1.57;;
14181;SDS011;7171;50.936;6.764;2024-01-16T09:24:12;3.13;;;1.67;;
14181;SDS011;7171;50.936;6.764;2024-01-16T09:26:39;1.97;;;1.77;;
14181;SDS011;7171;50.936;6.764;2024-01-16T09:29:07;2.10;;;1.73;;
14181;SDS011;7171;50.936;6.764;2024-01-16T09:31:34;2.57;;;2.23;;
14181;SDS011;7171;50.936;6.764;2024-01-16T09:34:02;10.93;;;2.30;;
14181;SDS011;7171;50.936;6.764;2024-01-16T09:36:29;2.60;;;1.97;;
14181;SDS011;7171;50.936;6.764;2024-01-16T09:38:56;3.97;;;2.03;;
14181;SDS011;7171;50.936;6.764;2024-01-16T09:41:23;4.07;;;1.77;;
14181;SDS011;7171;50.936;6.764;2024-01-16T09:43:50;3.97;;;1.87;;
14181;SDS011;7171;50.936;6.764;2024-01-16T09:46:18;1.67;;;1.17;;
14181;SDS011;7171;50.936;6.764;2024-01-16T09:48:48;7.13;;;1.97;;
14181;SDS011;7171;50.936;6.764;2024-01-16T09:51:21;5.83;;;2.80;;
14181;SDS011;7171;50.936;6.764;2024-01-16T09:53:48;3.67;;;2.63;;
14181;SDS011;7171;50.936;6.764;2024-01-16T09:56:15;2.13;;;1.90;;
14181;SDS011;7171;50.936;6.764;2024-01-16T09:58:43;2.17;;;1.67;;
14181;SDS011;7171;50.936;6.764;2024-01-16T10:01:10;1.80;;;1.70;;
14181;SDS011;7171;50.936;6.764;2024-01-16T10:03:37;7.77;;;2.80;;
14181;SDS011;7171;50.936;6.764;2024-01-16T10:06:06;6.73;;;2.43;;
14181;SDS011;7171;50.936;6.764;2024-01-16T10:08:35;2.07;;;1.83;;
14181;SDS011;7171;50.936;6.764;2024-01-16T10:11:02;2.70;;;1.93;;
14181;SDS011;7171;50.936;6.764;2024-01-16T10:13:29;7.10;;;2.30;;
14181;SDS011;7171;50.936;6.764;2024-01-16T10:15:58;1.63;;;1.37;;
14181;SDS011;7171;50.936;6.764;2024-01-16T10:18:26;1.40;;;1.30;;
14181;SDS011;7171;50.936;6.764;2024-01-16T10:20:54;2.23;;;1.83;;
14181;SDS011;7171;50.936;6.764;2024-01-16T10:23:24;5.70;;;2.20;;
14181;SDS011;7171;50.936;6.764;2024-01-16T10:26:09;3.63;;;1.30;;
14181;SDS011;7171;50.936;6.764;2024-01-16T10:28:37;7.33;;;1.30;;
14181;SDS011;7171;50.936;6.764;2024-01-16T10:31:05;5.67;;;1.63;;
14181;SDS011;7171;50.936;6.764;2024-01-16T10:33:33;1.93;;;1.50;;
14181;SDS011;7171;50.936;6.764;2024-01-16T10:36:09;2.00;;;1.33;;
14181;SDS011;7171;50.936;6.764;2024-01-16T10:38:37;1.60;;;1.40;;
14181;SDS011;7171;50.936;6.764;2024-01-16T10:41:05;2.80;;;1.63;;
14181;SDS011;7171;50.936;6.764;2024-01-16T10:43:37;4.03;;;1.63;;
14181;SDS011;7171;50.936;6.764;2024-01-16T10:46:10;2.10;;;1.47;;
14181;SDS011;7171;50.936;6.764;2024-01-16T10:48:38;1.70;;;1.50;;
14181;SDS011;7171;50.936;6.764;2024-01-16T10:51:06;9.50;;;2.00;;
14181;SDS011;7171;50.936;6.764;2024-01-16T10:53:36;2.80;;;1.57;;
14181;SDS011;7171;50.936;6.764;2024-01-16T10:56:08;1.87;;;1.70;;
14181;SDS011;7171;50.936;6.764;2024-01-16T10:58:39;4.60;;;1.70;;
14181;SDS011;7171;50.936;6.764;2024-01-16T11:01:09;1.57;;;1.47;;
14181;SDS011;7171;50.936;6.764;2024-01-16T11:03:38;1.70;;;1.60;;
14181;SDS011;7171;50.936;6.764;2024-01-16T11:06:09;4.23;;;2.17;;
14181;SDS011;7171;50.936;6.764;2024-01-16T11:08:38;4.40;;;1.90;;
14181;SDS011;7171;50.936;6.764;2024-01-16T11:11:06;3.73;;;1.30;;
14181;SDS011;7171;50.936;6.764;2024-01-16T11:13:35;3.33;;;1.83;;
14181;SDS011;7171;50.936;6.764;2024-01-16T11:16:03;2.80;;;1.83;;
14181;SDS011;7171;50.936;6.764;2024-01-16T11:18:30;4.30;;;1.83;;
14181;SDS011;7171;50.936;6.764;2024-01-16T11:20:58;4.07;;;1.87;;
14181;SDS011;7171;50.936;6.764;2024-01-16T11:23:27;2.50;;;2.30;;
14181;SDS011;7171;50.936;6.764;2024-01-16T11:25:54;4.13;;;2.10;;
14181;SDS011;7171;50.936;6.764;2024-01-16T11:28:20;2.40;;;1.37;;
14181;SDS011;7171;50.936;6.764;2024-01-16T11:30:55;5.57;;;2.57;;
14181;SDS011;7171;50.936;6.764;2024-01-16T11:36:20;1.73;;;1.63;;
14181;SDS011;7171;50.936;6.764;2024-01-16T11:39:19;2.33;;;1.67;;
14181;SDS011;7171;50.936;6.764;2024-01-16T11:41:49;3.37;;;1.60;;
14181;SDS011;7171;50.936;6.764;2024-01-16T11:47:15;4.13;;;1.83;;
14181;SDS011;7171;50.936;6.764;2024-01-16T11:49:43;3.10;;;2.43;;
14181;SDS011;7171;50.936;6.764;2024-01-16T11:52:11;5.60;;;2.07;;
14181;SDS011;7171;50.936;6.764;2024-01-16T11:54:38;1.50;;;1.40;;
14181;SDS011;7171;50.936;6.764;2024-01-16T12:00:19;4.97;;;1.83;;
14181;SDS011;7171;50.936;6.764;2024-01-16T12:02:49;2.33;;;1.77;;
14181;SDS011;7171;50.936;6.764;2024-01-16T12:05:18;5.20;;;2.60;;
14181;SDS011;7171;50.936;6.764;2024-01-16T12:07:47;8.67;;;2.33;;
14181;SDS011;7171;50.936;6.764;2024-01-16T12:10:19;7.43;;;2.70;;
14181;SDS011;7171;50.936;6.764;2024-01-16T12:12:47;1.50;;;1.40;;
14181;SDS011;7171;50.936;6.764;2024-01-16T12:15:18;4.00;;;1.93;;
14181;SDS011;7171;50.936;6.764;2024-01-16T12:17:54;4.40;;;1.80;;
14181;SDS011;7171;50.936;6.764;2024-01-16T12:20:22;2.53;;;1.77;;
14181;SDS011;7171;50.936;6.764;2024-01-16T12:22:55;3.73;;;1.90;;
14181;SDS011;7171;50.936;6.764;2024-01-16T12:25:23;1.73;;;1.63;;
14181;SDS011;7171;50.936;6.764;2024-01-16T12:27:54;2.47;;;1.90;;
14181;SDS011;7171;50.936;6.764;2024-01-16T12:30:24;2.40;;;1.87;;
14181;SDS011;7171;50.936;6.764;2024-01-16T12:32:53;4.80;;;1.60;;
14181;SDS011;7171;50.936;6.764;2024-01-16T12:35:29;3.90;;;2.23;;
14181;SDS011;7171;50.936;6.764;2024-01-16T12:38:01;2.73;;;1.80;;
14181;SDS011;7171;50.936;6.764;2024-01-16T12:40:30;2.13;;;1.70;;
14181;SDS011;7171;50.936;6.764;2024-01-16T12:42:57;4.73;;;1.67;;
14181;SDS011;7171;50.936;6.764;2024-01-16T12:45:24;2.53;;;1.67;;
14181;SDS011;7171;50.936;6.764;2024-01-16T12:47:51;2.00;;;1.80;;
14181;SDS011;7171;50.936;6.764;2024-01-16T12:50:19;5.87;;;1.83;;
14181;SDS011;7171;50.936;6.764;2024-01-16T12:52:47;3.63;;;1.77;;
14181;SDS011;7171;50.936;6.764;2024-01-16T12:55:15;3.60;;;2.03;;
14181;SDS011;7171;50.936;6.764;2024-01-16T12:57:43;7.43;;;3.00;;
14181;SDS011;7171;50.936;6.764;2024-01-16T13:00:23;3.63;;;1.93;;
14181;SDS011;7171;50.936;6.764;2024-01-16T13:02:50;3.97;;;2.17;;
14181;SDS011;7171;50.936;6.764;2024-01-16T13:05:17;2.90;;;1.80;;
14181;SDS011;7171;50.936;6.764;2024-01-16T13:07:44;2.93;;;2.03;;
14181;SDS011;7171;50.936;6.764;2024-01-16T13:10:12;5.13;;;2.37;;
14181;SDS011;7171;50.936;6.764;2024-01-16T13:12:42;4.27;;;1.70;;
14181;SDS011;7171;50.936;6.764;2024-01-16T13:15:09;4.27;;;2.00;;
14181;SDS011;7171;50.936;6.764;2024-01-16T13:17:36;2.03;;;1.90;;
14181;SDS011;7171;50.936;6.764;2024-01-16T13:20:03;3.87;;;1.83;;
14181;SDS011;7171;50.936;6.764;2024-01-16T13:22:33;4.20;;;1.97;;
14181;SDS011;7171;50.936;6.764;2024-01-16T13:24:59;4.47;;;2.27;;
14181;SDS011;7171;50.936;6.764;2024-01-16T13:27:26;1.60;;;1.50;;
14181;SDS011;7171;50.936;6.764;2024-01-16T13:29:55;2.63;;;1.80;;
14181;SDS011;7171;50.936;6.764;2024-01-16T13:32:22;7.07;;;2.33;;
14181;SDS011;7171;50.936;6.764;2024-01-16T13:34:49;7.60;;;2.90;;
14181;SDS011;7171;50.936;6.764;2024-01-16T13:37:18;3.83;;;1.60;;
14181;SDS011;7171;50.936;6.764;2024-01-16T13:39:46;6.73;;;1.93;;
14181;SDS011;7171;50.936;6.764;2024-01-16T13:42:13;6.23;;;2.13;;
14181;SDS011;7171;50.936;6.764;2024-01-16T13:44:43;6.13;;;2.40;;
14181;SDS011;7171;50.936;6.764;2024-01-16T13:47:11;3.30;;;2.47;;
14181;SDS011;7171;50.936;6.764;2024-01-16T13:49:39;5.67;;;2.60;;
14181;SDS011;7171;50.936;6.764;2024-01-16T13:52:06;5.63;;;2.57;;
14181;SDS011;7171;50.936;6.764;2024-01-16T13:54:35;3.70;;;1.80;;
14181;SDS011;7171;50.936;6.764;2024-01-16T13:57:03;4.33;;;2.50;;
14181;SDS011;7171;50.936;6.764;2024-01-16T13:59:30;4.03;;;2.03;;
14181;SDS011;7171;50.936;6.764;2024-01-16T14:01:56;2.90;;;2.27;;
14181;SDS011;7171;50.936;6.764;2024-01-16T14:04:24;6.97;;;2.33;;
14181;SDS011;7171;50.936;6.764;2024-01-16T14:06:51;3.63;;;2.03;;
14181;SDS011;7171;50.936;6.764;2024-01-16T14:09:18;8.33;;;2.20;;
14181;SDS011;7171;50.936;6.764;2024-01-16T14:11:45;2.53;;;1.83;;
14181;SDS011;7171;50.936;6.764;2024-01-16T14:14:11;2.33;;;2.13;;
14181;SDS011;7171;50.936;6.764;2024-01-16T14:16:38;2.43;;;2.10;;
14181;SDS011;7171;50.936;6.764;2024-01-16T14:19:05;7.67;;;2.10;;
14181;SDS011;7171;50.936;6.764;2024-01-16T14:21:33;3.00;;;2.13;;
14181;SDS011;7171;50.936;6.764;2024-01-16T14:24:00;8.30;;;2.93;;
14181;SDS011;7171;50.936;6.764;2024-01-16T14:26:27;2.07;;;1.87;;
14181;SDS011;7171;50.936;6.764;2024-01-16T14:28:53;6.63;;;2.23;;
14181;SDS011;7171;50.936;6.764;2024-01-16T14:31:20;4.50;;;2.30;;
14181;SDS011;7171;50.936;6.764;2024-01-16T14:33:46;2.03;;;1.70;;
14181;SDS011;7171;50.936;6.764;2024-01-16T14:36:13;4.37;;;2.40;;
14181;SDS011;7171;50.936;6.764;2024-01-16T14:38:41;2.47;;;2.00;;
14181;SDS011;7171;50.936;6.764;2024-01-16T14:41:08;1.97;;;1.67;;
14181;SDS011;7171;50.936;6.764;2024-01-16T14:43:35;2.27;;;1.43;;
14181;SDS011;7171;50.936;6.764;2024-01-16T14:46:01;3.70;;;2.47;;
14181;SDS011;7171;50.936;6.764;2024-01-16T14:48:28;2.67;;;2.00;;
14181;SDS011;7171;50.936;6.764;2024-01-16T14:50:55;4.13;;;2.23;;
14181;SDS011;7171;50.936;6.764;2024-01-16T14:53:22;3.53;;;2.03;;
14181;SDS011;7171;50.936;6.764;2024-01-16T14:55:50;7.40;;;2.47;;
14181;SDS011;7171;50.936;6.764;2024-01-16T14:58:18;3.03;;;2.30;;
14181;SDS011;7171;50.936;6.764;2024-01-16T15:00:48;6.40;;;2.40;;
14181;SDS011;7171;50.936;6.764;2024-01-16T15:03:14;2.57;;;2.27;;
14181;SDS011;7171;50.936;6.764;2024-01-16T15:05:44;5.20;;;3.77;;
14181;SDS011;7171;50.936;6.764;2024-01-16T15:08:12;3.60;;;2.70;;
14181;SDS011;7171;50.936;6.764;2024-01-16T15:10:39;3.60;;;2.33;;
14181;SDS011;7171;50.936;6.764;2024-01-16T15:13:07;7.13;;;2.37;;